W55KENMORE AIR
METARs for airports near W55, sorted by distance:
S 6 nm 21' KBFI 171700Z 20009G16KT 10SM SCT020 OVC055 13/08 A3004
SE 9 nm 32' KRNT 171653Z 19008KT 10SM -RA BKN021 OVC060 13/08 A3004
S 10 nm 432' KSEA 171653Z 20007KT 10SM BKN014 OVC045 12/07 A3004
N 16 nm 606' KPAE 171653Z 22005KT 10SM BKN006 BKN014 OVC027 12/09 A3004
SW 19 nm 444' KPWT 171656Z 21004KT 10SM SCT013 A3004
SW 23 nm 294' KTIW 171653Z 18004KT 10SM OVC019 12/09 A3004
S 30 nm 322' KTCM 171655Z 20007KT 10SM OVC020 14/09 A3003
S 31 nm 537' KPLU 171655Z 00000KT 10SM OVC020 13/09 A3005
N 32 nm 141' KAWO 171656Z 16008KT 4SM -RA BR BKN008 OVC016 11/09 A3004
S 34 nm 301' KGRF 171655Z 19007KT 10SM OVC021 14/09 A3001
SW 40 nm 272' KSHN 171700Z VRB04KT 10SM BKN022 BKN027 BKN110 15/09 A3000
N 45 nm 47' KNUW 171553Z 28006KT 10SM SCT015 BKN025 BKN035 10/10 A3001
SW 45 nm 207' KOLM 171654Z 24006KT 10SM FEW019 SCT025 OVC033 14/09 A3005
N 50 nm 145' KBVS 171655Z 00000KT 10SM BKN005 BKN010 OVC029 12/12 A3002
NW 53 nm 13' KNOW 171655Z 30005KT 10SM CLR 13/10 A3003
NW 55 nm 291' KCLM 171653Z 29010G18KT 10SM CLR 15/10 A3002
NW 60 nm 112' KFHR 171653Z VRB03KT 10SM OVC065 16/09 A3002
SW 62 nm 177' KCLS 171655Z 22006KT 9SM OVC039 13/12 A3007
N 68 nm 34' KORS 171655Z 00000KT 10SM FEW021 SCT028 OVC055 14/09 A3000
N 70 nm 171' KBLI 171658Z 18005KT 8SM SCT007 OVC019 11/11 A3000
NW 75 nm 64' CYYJ 171600Z 26004KT 250V320 30SM BKN063 13/09 A3000
SW 76 nm 17' KHQM 171653Z 31008KT 10SM SCT018 SCT024 OVC030 12/09 A3007
SE 81 nm 1763' KELN 171653Z 30026G40KT 10SM FEW085 BKN110 16/03 A2990
E 87 nm 1248' KEAT 171555Z 30014KT 10SM SCT070 OVC085 14/03 A2988
W 91 nm 194' KUIL 171653Z 31009KT 10SM SCT020 BKN024 OVC033 14/10 A3006
S 93 nm 20' KKLS 171656Z 16005KT 10SM -RA BKN020 OVC036 11/09 A3010
SE 97 nm 1098' KYKM 171653Z 23007KT 10SM OVC085 16/03 A2992
N 99 nm 14' CYVR 171611Z 12005KT 2 1/2SM -RA BR OVC020 11/11 A3000
TAFs for airports near W55, sorted by distance:
S 6 nm 21' KBFI TAF KBFI 171120Z 1712/1812 18005KT P6SM OVC050
  TEMPO 1712/1716 -SHRA OVC020
  FM172100 22008KT P6SM BKN050
  FM180400 VRB03KT P6SM OVC050
S 10 nm 432' KSEA KSEA 171300Z 1713/1818 21006KT P6SM VCSH SCT020 OVC050
  TEMPO 1713/1716 -SHRA OVC010
  FM172000 22010KT P6SM BKN040
  FM180400 20008KT P6SM OVC040
N 16 nm 606' KPAE TAF KPAE 171120Z 1712/1812 18007KT P6SM VCSH SCT010 BKN030
  TEMPO 1712/1716 -SHRA OVC007
  FM172100 33006KT P6SM BKN030 OVC050
  FM180600 VRB05KT P6SM BKN050
SW 19 nm 444' KPWT TAF
  AMD KPWT 171257Z 1713/1812 20004KT P6SM BKN050
  TEMPO 1713/1716 -SHRA OVC003
  FM172000 21009KT P6SM BKN030 BKN050
  FM180400 17006KT P6SM OVC030
  FM180800 VRB03KT P6SM OVC020
S 30 nm 322' KTCM TAF KTCM 171300Z 1713/1819 19006KT 9999 OVC050 620606 QNH3000INS
  TEMPO 1713/1715 BKN015
  BECMG 1716/1717 21006KT 9999 BKN025 OVC050 620601 QNH3001INS
  BECMG 1720/1721 24010G15KT 9999 VCSH BKN040 610603 QNH3001INS
  BECMG 1723/1724 24010G15KT 9999 NSW BKN050 620603 QNH3001INS
  TEMPO 1800/1803 24012G20KT
  BECMG 1804/1805 22010KT 9999 BKN020 620603 QNH3004INS TX18/1721Z TN09/1809Z
S 34 nm 301' KGRF TAF KGRF 171300Z 1713/1819 13006KT 8000 BR SCT008 BKN012 OVC090 QNH2997INS
  BECMG 1715/1716 22006KT 9999 NSW BKN020 QNH2999INS
  BECMG 1718/1719 24009KT 9999 BKN030 QNH2999INS
  TEMPO 1722/1804 25012G20KT
  BECMG 1805/1806 13006KT 9999 BKN015 OVC045 QNH3003INS
  BECMG 1816/1817 24006KT 9999 OVC020 QNH3006INS TX19/1722Z TN08/1713Z
N 45 nm 47' KNUW TAF KNUW 1715/1815 22008KT 9999 VCSH FEW015 BKN025 BKN035 QNH2996INS
  TEMPO 1715/1719 VRB06KT 8000 -SHRA BR SCT003 BKN010 OVC020
  FM172000 VRB06KT 9999 VCSH FEW015 SCT025 BKN040 BKN150 QNH3000INS
  FM180000 21010G15KT 9999 FEW030 BKN060 BKN150 BKN200 QNH3002INS
  FM181000 23009KT 9999 FEW020 SCT030 SCT200 QNH3002INS TX15/1722Z TN08/1812Z FS30028
SW 45 nm 207' KOLM TAF KOLM 171120Z 1712/1812 VRB05KT P6SM SCT040 BKN060
  FM171500 21008KT P6SM OVC025
  FM171900 23011KT P6SM SCT030 OVC050
  FM180300 23006KT P6SM BKN050
  FM180700 VRB04KT P6SM OVC030
NW 55 nm 291' KCLM TAF KCLM 171120Z 1712/1812 27008KT P6SM OVC060
  FM171600 30012KT P6SM OVC030
  FM172100 32015G24KT P6SM OVC050
  FM180400 28008KT P6SM BKN050
N 70 nm 171' KBLI TAF KBLI 171120Z 1712/1812 14004KT P6SM SCT025 BKN040
  FM171400 18007KT P6SM OVC025
  FM172100 17010KT P6SM SCT025 OVC050
  FM180400 17005KT P6SM OVC050
SW 76 nm 17' KHQM TAF KHQM 171120Z 1712/1812 30008KT P6SM OVC025
  FM172100 26015G24KT P6SM SCT025 OVC035
  FM180400 27007KT P6SM OVC025
E 87 nm 1248' KEAT TAF KEAT 171129Z 1712/1812 33007KT P6SM SKC
  FM171800 30015G22KT P6SM SCT080
  FM180000 30020G28KT P6SM SCT200
  FM180600 30014KT P6SM BKN250
SE 97 nm 1098' KYKM TAF KYKM 171120Z 1712/1812 32006KT P6SM SCT250
  FM171900 31012G20KT P6SM SCT070 SCT250
  FM180400 32007KT P6SM SKC

Shortcut to this page: http://wxbay.com.

Data may contain errors.